This is the latest recevied weather packets stored in our database for station/object YS1AHL-27. If no packets are shown the sender has not sent any weather packets the latest 1 day(s).
| Time | Temp. | Humidity | Pressure | Rain* | Wind** | Luminosity | Snow |
|---|---|---|---|---|---|---|---|
| 1778025501 | 16.11° C | 54% | 1004 hPa | 0 mm | - | - | - |
| 1778024900 | 16.11° C | 54% | 1004 hPa | 0 mm | - | - | - |
| 1778021838 | 10.56° C | 61% | 1003 hPa | 0 mm | - | - | - |
| 1778021297 | 11.11° C | 61% | 1003 hPa | 0 mm | - | - | - |
| 1778020696 | 11.67° C | 61% | 1003 hPa | 0 mm | - | - | - |
| 1778019495 | 12.22° C | 61% | 1002 hPa | 0 mm | - | - | - |
| 1778019435 | 12.22° C | 61% | 1002 hPa | 0 mm | - | - | - |
| 1778018834 | 12.78° C | 61% | 1002 hPa | 0 mm | - | - | - |
| 1778017693 | 13.33° C | 61% | 1002 hPa | 0 mm | - | - | - |
| 1778017633 | 13.33° C | 61% | 1002 hPa | 0 mm | - | - | - |
| 1778017032 | 13.33° C | 61% | 1002 hPa | 0 mm | - | - | - |
| 1778015891 | 14.44° C | 61% | 1001 hPa | 0 mm | - | - | - |
| 1778015831 | 14.44° C | 61% | 1001 hPa | 0 mm | - | - | - |
| 1778015230 | 15° C | 61% | 1001 hPa | 0 mm | - | - | - |
| 1778014690 | 20.56° C | 56% | 1001 hPa | 0 mm | - | - | - |
| 1778014029 | 20.56° C | 56% | 1001 hPa | 0 mm | - | - | - |
| 1778012888 | 19.44° C | 59% | 1000 hPa | 0 mm | - | - | - |
| 1778012287 | 19.44° C | 61% | 1000 hPa | 0 mm | - | - | - |
| 1778012227 | 19.44° C | 61% | 1000 hPa | 0 mm | - | - | - |
| 1778011626 | 19.44° C | 65% | 1000 hPa | 0 mm | - | - | - |
| 1778011086 | 19.44° C | 66% | 1000 hPa | 0 mm | - | - | - |
| 1778009885 | 19.44° C | 65% | 1000 hPa | 0 mm | - | - | - |
| 1778009284 | 19.44° C | 63% | - | 0 mm | - | - | - |
* Rain latest hour (hover to see other rain measurements)
** Current wind speed in m/s (hover to see current wind gust speed)